Weather History for La Veta Pass, CO

Change the Weather History Date:

Monday, September 30, 2013

  Actual Average (KTAD) Record (KTAD)
Temperature  
Mean Temperature 50 °F 58 °F  
Max Temperature 62 °F 74 °F 89 °F (1989)
Min Temperature 39 °F 43 °F 29 °F (1985)
Degree Days  
Heating Degree Days 14 7  
Month to date heating degree days 101  
Since 1 July heating degree days 110  
Cooling Degree Days 0 0  
Month to date cooling degree days 74  
Year to date cooling degree days 716  
Moisture  
Dew Point 23 °F    
Average Humidity 36    
Maximum Humidity 53    
Minimum Humidity 22    
Precipitation  
Precipitation 0.00 in 0.03 in 0.36 in (1982)
Month to date precipitation 1.24  
Year to date precipitation 11.70  
Sea Level Pressure  
Sea Level Pressure 30.27 in    
Wind  
Wind Speed 15 mph (SW)    
Max Wind Speed 26 mph    
Max Gust Speed 41 mph    
Visibility 10 miles    
Events      
T = Trace of Precipitation, MM = Missing Value Source: NWS Daily Summary

Daily Weather History Graph

Daily Weather History Graph

Search for Another Location

Airport:

Trip Planner

Search our weather history database for the weather conditions in past years. The results will help you decide how hot, cold, wet, or windy it might be!

Date:

Astronomy

Sep. 30, 2013 Rise Set
Actual Time 6:55 AM MDT 6:44 PM MDT
Civil Twilight 6:29 AM MDT 7:10 PM MDT
Nautical Twilight 5:59 AM MDT 7:41 PM MDT
Astronomical Twilight 5:28 AM MDT 8:11 PM MDT
Moon 2:39 AM MDT (9/30) 4:13 PM MDT (9/30)
Length of Visible Light 12h 41m
Length of Day
11h 49m
Waning Crescent, 18% of the Moon is Illuminated
Sep 30
Waning Crescent
Oct 4
New
Oct 11
First Quarter
Oct 18
Full
Oct 26
Last Quarter

Hourly Weather History & Observations

Time (MDT) Temp. Windchill Dew Point Humidity Pressure Visibility Wind Dir Wind Speed Gust Speed Precip Events Conditions
12:14 AM 44.6 °F 35.3 °F 21.2 °F 39% 30.24 in 10.0 mi SW 26.5 mph 38.0 mph N/A   Clear
12:34 AM 44.6 °F 35.9 °F 21.2 °F 39% 30.23 in 10.0 mi SW 23.0 mph 36.8 mph N/A   Clear
12:54 AM 44.6 °F 36.4 °F 21.2 °F 39% 30.23 in 10.0 mi SW 20.7 mph 41.4 mph N/A   Clear
1:14 AM 42.8 °F 34.8 °F 21.2 °F 42% 30.23 in 10.0 mi SW 17.3 mph 33.4 mph N/A   Clear
1:34 AM 42.8 °F 35.4 °F 21.2 °F 42% 30.25 in 10.0 mi SW 15.0 mph 34.5 mph N/A   Clear
1:54 AM 42.8 °F 37.0 °F 21.2 °F 42% 30.29 in 10.0 mi WSW 10.4 mph 23.0 mph N/A   Clear
2:14 AM 42.8 °F 36.6 °F 21.2 °F 42% 30.28 in 10.0 mi WSW 11.5 mph 23.0 mph N/A   Clear
2:34 AM 42.8 °F 35.1 °F 21.2 °F 42% 30.27 in 10.0 mi SW 16.1 mph 24.2 mph N/A   Clear
2:53 AM 42.8 °F 37.0 °F 21.2 °F 42% 30.28 in 10.0 mi SW 10.4 mph 19.6 mph N/A   Clear
3:14 AM 41.0 °F 33.5 °F 19.4 °F 42% 30.27 in 10.0 mi SW 13.8 mph 21.9 mph N/A   Clear
3:34 AM 39.2 °F 32.0 °F 19.4 °F 45% 30.27 in 10.0 mi SW 11.5 mph 25.3 mph N/A   Clear
3:53 AM 41.0 °F 33.1 °F 19.4 °F 42% 30.27 in 10.0 mi SW 15.0 mph 27.6 mph N/A   Clear
4:14 AM 41.0 °F 33.9 °F 19.4 °F 42% 30.27 in 10.0 mi SW 12.7 mph 25.3 mph N/A   Clear
4:34 AM 39.2 °F 30.8 °F 19.4 °F 45% 30.27 in 10.0 mi SW 15.0 mph 23.0 mph N/A   Clear
4:53 AM 39.2 °F 31.6 °F 19.4 °F 45% 30.26 in 10.0 mi SW 12.7 mph 21.9 mph N/A   Clear
5:14 AM 41.0 °F 33.1 °F 17.6 °F 39% 30.27 in 10.0 mi SW 15.0 mph 24.2 mph N/A   Clear
5:33 AM 41.0 °F 32.8 °F 17.6 °F 39% 30.27 in 10.0 mi SW 16.1 mph 27.6 mph N/A   Clear
5:54 AM 41.0 °F 34.3 °F 17.6 °F 39% 30.28 in 10.0 mi SW 11.5 mph 19.6 mph N/A   Clear
6:14 AM 39.2 °F 31.2 °F 17.6 °F 42% 30.28 in 10.0 mi SW 13.8 mph 20.7 mph N/A   Clear
6:33 AM 39.2 °F 31.2 °F 17.6 °F 42% 30.28 in 10.0 mi SW 13.8 mph 25.3 mph N/A   Clear
6:54 AM 39.2 °F 31.6 °F 15.8 °F 39% 30.28 in 10.0 mi SW 12.7 mph 24.2 mph N/A   Clear
7:13 AM 39.2 °F 33.0 °F 17.6 °F 42% 30.28 in 10.0 mi SW 9.2 mph 18.4 mph N/A   Clear
7:34 AM 39.2 °F 32.5 °F 19.4 °F 45% 30.28 in 10.0 mi SW 10.4 mph 23.0 mph N/A   Clear
7:54 AM 39.2 °F 33.0 °F 19.4 °F 45% 30.28 in 10.0 mi SW 9.2 mph 17.3 mph N/A   Clear
8:13 AM 41.0 °F 35.2 °F 17.6 °F 39% 30.28 in 10.0 mi SW 9.2 mph 19.6 mph N/A   Clear
8:34 AM 42.8 °F 36.6 °F 17.6 °F 36% 30.28 in 10.0 mi SW 11.5 mph 25.3 mph N/A   Clear
8:54 AM 44.6 °F 38.8 °F 19.4 °F 37% 30.29 in 10.0 mi SW 11.5 mph 24.2 mph N/A   Clear
9:13 AM 44.6 °F 38.1 °F 19.4 °F 37% 30.30 in 10.0 mi SW 13.8 mph 23.0 mph N/A   Clear
9:34 AM 44.6 °F 38.1 °F 19.4 °F 37% 30.30 in 10.0 mi SW 13.8 mph 23.0 mph N/A   Clear
9:53 AM 46.4 °F 41.9 °F 19.4 °F 34% 30.30 in 10.0 mi SW 9.2 mph 24.2 mph N/A   Clear
10:14 AM 50.0 °F - 21.2 °F 32% 30.30 in 10.0 mi SW 13.8 mph 23.0 mph N/A   Clear
10:34 AM 51.8 °F - 19.4 °F 28% 30.29 in 10.0 mi SW 13.8 mph 25.3 mph N/A   Clear
10:53 AM 53.6 °F - 21.2 °F 28% 30.29 in 10.0 mi SW 13.8 mph 23.0 mph N/A   Clear
11:14 AM 53.6 °F - 17.6 °F 24% 30.29 in 10.0 mi SW 15.0 mph 28.8 mph N/A   Clear
11:34 AM 55.4 °F - 19.4 °F 25% 30.29 in 10.0 mi SW 12.7 mph 24.2 mph N/A   Clear
11:53 AM 57.2 °F - 21.2 °F 25% 30.29 in 10.0 mi SW 17.3 mph 24.2 mph N/A   Clear
12:14 PM 57.2 °F - 21.2 °F 25% 30.28 in 10.0 mi SW 16.1 mph 27.6 mph N/A   Clear
12:34 PM 59.0 °F - 21.2 °F 23% 30.28 in 10.0 mi SW 15.0 mph 27.6 mph N/A   Clear
12:54 PM 59.0 °F - 21.2 °F 23% 30.28 in 10.0 mi SW 16.1 mph 29.9 mph N/A   Clear
1:13 PM 59.0 °F - 21.2 °F 23% 30.27 in 10.0 mi SW 13.8 mph 23.0 mph N/A   Clear
1:34 PM 60.8 °F - 21.2 °F 22% 30.27 in 10.0 mi SW 10.4 mph 27.6 mph N/A   Clear
1:54 PM 60.8 °F - 23.0 °F 23% 30.26 in 10.0 mi SW 17.3 mph 27.6 mph N/A   Clear
2:14 PM 62.6 °F - 23.0 °F 22% 30.26 in 10.0 mi SW 17.3 mph 24.2 mph N/A   Clear
2:34 PM 62.6 °F - 23.0 °F 22% 30.26 in 10.0 mi SW 12.7 mph 25.3 mph N/A   Clear
2:54 PM 62.6 °F - 26.6 °F 26% 30.25 in 10.0 mi SW 12.7 mph 19.6 mph N/A   Clear
3:13 PM 62.6 °F - 26.6 °F 26% 30.25 in 10.0 mi SW 11.5 mph 25.3 mph N/A   Clear
3:34 PM 62.6 °F - 26.6 °F 26% 30.25 in 10.0 mi SW 11.5 mph 24.2 mph N/A   Clear
3:53 PM 62.6 °F - 26.6 °F 26% 30.25 in 10.0 mi SW 10.4 mph 16.1 mph N/A   Clear
4:14 PM 62.6 °F - 28.4 °F 27% 30.25 in 10.0 mi SW 8.1 mph 23.0 mph N/A   Clear
4:34 PM 62.6 °F - 26.6 °F 26% 30.25 in 10.0 mi WSW 8.1 mph 18.4 mph N/A   Clear
4:54 PM 62.6 °F - 28.4 °F 27% 30.25 in 10.0 mi WSW 10.4 mph 18.4 mph N/A   Clear
5:14 PM 60.8 °F - 26.6 °F 27% 30.25 in 10.0 mi SW 9.2 mph 16.1 mph N/A   Clear
5:33 PM 59.0 °F - 28.4 °F 31% 30.25 in 10.0 mi WSW 6.9 mph - N/A   Clear
5:54 PM 59.0 °F - 28.4 °F 31% 30.25 in 10.0 mi WSW 5.8 mph - N/A   Clear
6:14 PM 57.2 °F - 28.4 °F 33% 30.25 in 10.0 mi SW 5.8 mph - N/A   Clear
6:33 PM 55.4 °F - 26.6 °F 33% 30.25 in 10.0 mi SW 6.9 mph - N/A   Clear
6:54 PM 53.6 °F - 26.6 °F 35% 30.25 in 10.0 mi SW 8.1 mph - N/A   Clear
7:13 PM 53.6 °F - 26.6 °F 35% 30.25 in 10.0 mi WSW 9.2 mph 18.4 mph N/A   Clear
7:34 PM 53.6 °F - 26.6 °F 35% 30.26 in 10.0 mi SW 10.4 mph 17.3 mph N/A   Clear
7:54 PM 53.6 °F - 26.6 °F 35% 30.26 in 10.0 mi WSW 8.1 mph 18.4 mph N/A   Clear
8:14 PM 51.8 °F - 26.6 °F 38% 30.25 in 10.0 mi SW 6.9 mph - N/A   Clear
8:34 PM 51.8 °F - 26.6 °F 38% 30.26 in 10.0 mi WSW 8.1 mph - N/A   Clear
8:53 PM 51.8 °F - 26.6 °F 38% 30.27 in 10.0 mi SW 10.4 mph 20.7 mph N/A   Clear
9:14 PM 51.8 °F - 26.6 °F 38% 30.27 in 10.0 mi SW 9.2 mph 16.1 mph N/A   Clear
9:34 PM 51.8 °F - 28.4 °F 41% 30.27 in 10.0 mi SW 12.7 mph 19.6 mph N/A   Clear
9:54 PM 50.0 °F - 26.6 °F 40% 30.28 in 10.0 mi SW 8.1 mph - N/A   Clear
10:14 PM 50.0 °F - 26.6 °F 40% 30.28 in 10.0 mi SW 8.1 mph - N/A   Clear
10:34 PM 48.2 °F - 28.4 °F 46% 30.28 in 10.0 mi SW 9.2 mph - N/A   Clear
10:54 PM 46.4 °F 42.9 °F 28.4 °F 50% 30.28 in 10.0 mi SW 6.9 mph 17.3 mph N/A   Clear
11:13 PM 46.4 °F 42.4 °F 28.4 °F 50% 30.27 in 10.0 mi West 8.1 mph - N/A   Clear
11:33 PM 46.4 °F 41.9 °F 28.4 °F 50% 30.27 in 10.0 mi WSW 9.2 mph - N/A   Clear
11:54 PM 44.6 °F 40.2 °F 28.4 °F 53% 30.27 in 10.0 mi SW 8.1 mph - N/A   Clear